createdAt,value
2022-09-15T00:02:25.411Z,22.73
2022-09-15T00:04:52.107Z,21.27
2022-09-15T00:07:18.624Z,18.70
2022-09-15T00:09:45.154Z,17.17
2022-09-15T00:12:11.720Z,16.80
2022-09-15T00:14:38.267Z,21.10
2022-09-15T00:17:04.877Z,17.65
2022-09-15T00:19:31.551Z,23.48
2022-09-15T00:21:58.090Z,20.10
2022-09-15T00:24:24.587Z,19.58
2022-09-15T00:26:51.130Z,17.45
2022-09-15T00:29:17.648Z,19.20
2022-09-15T00:31:44.382Z,16.20
2022-09-15T00:34:12.766Z,16.17
2022-09-15T00:36:39.410Z,15.50
2022-09-15T00:39:06.126Z,26.45
2022-09-15T00:41:32.769Z,16.65
2022-09-15T00:44:05.173Z,18.02
2022-09-15T00:46:37.951Z,16.70
2022-09-15T00:49:13.365Z,17.63
2022-09-15T00:51:50.796Z,20.00
2022-09-15T00:54:30.910Z,16.02
2022-09-15T00:57:02.788Z,20.02
2022-09-15T00:59:31.995Z,19.83
2022-09-15T01:02:08.627Z,19.08
2022-09-15T01:04:35.286Z,15.00
2022-09-15T01:07:05.629Z,17.73
2022-09-15T01:09:38.603Z,16.13
2022-09-15T01:12:05.379Z,19.83
2022-09-15T01:14:31.904Z,20.27
2022-09-15T01:17:17.359Z,17.10
2022-09-15T01:20:19.642Z,21.20
2022-09-15T01:23:10.582Z,21.58
2022-09-15T01:25:43.631Z,18.38
2022-09-15T01:28:52.158Z,18.98
2022-09-15T01:32:00.317Z,24.90
2022-09-15T01:34:34.437Z,19.70
2022-09-15T01:37:06.218Z,20.15
2022-09-15T01:39:39.927Z,18.63
2022-09-15T01:42:09.947Z,24.73
2022-09-15T01:44:51.908Z,18.55
2022-09-15T01:47:20.783Z,17.40
2022-09-15T01:50:02.302Z,21.20
2022-09-15T01:52:30.690Z,19.10
2022-09-15T01:55:02.348Z,17.95
2022-09-15T01:57:28.928Z,16.77
2022-09-15T01:59:56.490Z,19.20
2022-09-15T02:02:30.032Z,21.55
2022-09-15T02:07:35.726Z,16.10
2022-09-15T02:10:07.263Z,17.85
2022-09-15T02:12:40.586Z,21.38
2022-09-15T02:15:12.230Z,21.00
2022-09-15T02:17:45.696Z,19.60
2022-09-15T02:22:52.284Z,17.63
2022-09-15T02:25:24.703Z,19.17
2022-09-15T02:27:54.850Z,19.83
2022-09-15T02:30:22.160Z,17.10
2022-09-15T02:33:00.969Z,19.02
2022-09-15T02:35:29.674Z,18.23
2022-09-15T02:37:56.877Z,23.80
2022-09-15T02:40:23.553Z,14.98
2022-09-15T02:43:01.786Z,16.80
2022-09-15T02:45:31.091Z,24.15
2022-09-15T02:47:58.847Z,16.27
2022-09-15T02:50:26.747Z,17.10
2022-09-15T02:52:57.496Z,17.60
2022-09-15T02:55:27.293Z,18.23
2022-09-15T02:57:53.821Z,18.60
2022-09-15T03:00:20.823Z,13.15
2022-09-15T03:02:50.179Z,19.25
2022-09-15T03:05:19.423Z,12.55
2022-09-15T03:07:46.048Z,26.98
2022-09-15T03:10:13.450Z,16.45
2022-09-15T03:12:45.414Z,21.40
2022-09-15T03:15:14.176Z,17.10
2022-09-15T03:17:42.958Z,25.63
2022-09-15T03:20:11.801Z,17.35
2022-09-15T03:22:38.411Z,19.10
2022-09-15T03:25:06.660Z,14.77
2022-09-15T03:27:34.556Z,14.70
2022-09-15T03:30:01.640Z,15.07
2022-09-15T03:32:28.461Z,17.00
2022-09-15T03:34:58.387Z,20.40
2022-09-15T03:37:25.549Z,13.95
2022-09-15T03:39:52.139Z,15.30
2022-09-15T03:42:19.715Z,15.20
2022-09-15T03:44:46.375Z,15.85
2022-09-15T03:47:13.130Z,18.52
2022-09-15T03:49:39.636Z,19.30
2022-09-15T03:52:06.172Z,28.52
2022-09-15T03:54:32.768Z,13.35
2022-09-15T03:56:59.336Z,21.88
2022-09-15T03:59:25.911Z,18.75
2022-09-15T04:01:52.674Z,21.60
2022-09-15T04:04:19.255Z,19.58
2022-09-15T04:06:45.894Z,20.25
2022-09-15T04:09:12.543Z,22.17
2022-09-15T04:11:39.676Z,18.55
2022-09-15T04:14:06.499Z,20.17
2022-09-15T04:16:33.985Z,21.25
2022-09-15T04:19:00.866Z,20.40
2022-09-15T04:21:27.437Z,20.55
2022-09-15T04:23:54.699Z,18.27
2022-09-15T04:26:31.484Z,19.27
2022-09-15T04:29:03.604Z,18.42
2022-09-15T04:31:31.790Z,22.60
2022-09-15T04:33:58.353Z,19.35
2022-09-15T04:36:27.523Z,17.50
2022-09-15T04:38:55.187Z,24.10
2022-09-15T04:41:22.104Z,23.35
2022-09-15T04:43:48.706Z,22.65
2022-09-15T04:46:15.643Z,20.40
2022-09-15T04:48:44.039Z,24.88
2022-09-15T04:51:14.092Z,23.45
2022-09-15T04:53:41.827Z,20.73
2022-09-15T04:56:17.752Z,23.52
2022-09-15T04:58:51.560Z,18.08
2022-09-15T05:01:21.269Z,25.42
2022-09-15T05:03:48.090Z,18.00
2022-09-15T05:06:17.605Z,23.05
2022-09-15T05:08:48.067Z,21.25
2022-09-15T05:11:14.964Z,19.40
2022-09-15T05:13:42.068Z,18.83
2022-09-15T05:16:20.141Z,19.52
2022-09-15T05:18:48.312Z,20.55
2022-09-15T05:21:16.528Z,23.77
2022-09-15T05:23:43.848Z,21.55
2022-09-15T05:26:15.628Z,22.25
2022-09-15T05:28:42.451Z,24.23
2022-09-15T05:31:12.332Z,22.83
2022-09-15T05:33:39.304Z,19.58
2022-09-15T05:36:07.272Z,19.17
2022-09-15T05:38:33.839Z,20.80
2022-09-15T05:41:05.449Z,22.17
2022-09-15T05:43:32.775Z,20.23
2022-09-15T05:45:59.309Z,22.60
2022-09-15T05:48:25.916Z,26.30
2022-09-15T05:50:54.108Z,22.15
2022-09-15T05:53:21.263Z,23.27
2022-09-15T05:55:48.145Z,22.17
2022-09-15T05:58:15.048Z,21.60
2022-09-15T06:00:42.527Z,20.17
2022-09-15T06:03:15.124Z,20.48
2022-09-15T06:05:42.386Z,19.70
2022-09-15T06:08:09.553Z,17.77
2022-09-15T06:10:36.516Z,23.02
2022-09-15T06:13:03.154Z,21.15
2022-09-15T06:15:29.727Z,25.17
2022-09-15T06:17:56.219Z,18.05
2022-09-15T06:20:22.904Z,27.30
2022-09-15T06:22:49.554Z,25.77
2022-09-15T06:25:16.373Z,18.23
2022-09-15T06:27:42.945Z,26.08
2022-09-15T06:30:10.380Z,27.30
2022-09-15T06:32:37.149Z,29.88
2022-09-15T06:35:07.214Z,21.42
2022-09-15T06:37:34.984Z,22.15
2022-09-15T06:40:02.629Z,27.13
2022-09-15T06:42:29.205Z,31.08
2022-09-15T06:44:56.260Z,25.38
2022-09-15T06:47:22.773Z,28.70
2022-09-15T06:49:49.335Z,30.55
2022-09-15T06:52:15.864Z,20.13
2022-09-15T06:54:42.468Z,25.67
2022-09-15T06:57:09.104Z,23.13
2022-09-15T06:59:35.583Z,19.30
2022-09-15T07:02:05.063Z,22.63
2022-09-15T07:04:33.579Z,23.13
2022-09-15T07:07:00.093Z,20.42
2022-09-15T07:09:26.646Z,23.70
2022-09-15T07:11:53.230Z,22.88
2022-09-15T07:14:19.737Z,17.40
2022-09-15T07:16:46.287Z,30.02
2022-09-15T07:19:13.135Z,25.92
2022-09-15T07:21:39.629Z,29.42
2022-09-15T07:24:07.792Z,23.85
2022-09-15T07:26:34.638Z,17.85
2022-09-15T07:29:05.504Z,23.15
2022-09-15T07:31:34.465Z,18.98
2022-09-15T07:34:02.217Z,16.95
2022-09-15T07:36:29.987Z,15.65
2022-09-15T07:38:56.742Z,22.40
2022-09-15T07:41:26.142Z,17.98
2022-09-15T07:43:54.933Z,29.55
2022-09-15T07:46:23.112Z,17.30
2022-09-15T07:48:52.087Z,18.30
2022-09-15T07:51:19.276Z,16.30
2022-09-15T07:53:47.282Z,17.90
2022-09-15T07:56:14.036Z,21.80
2022-09-15T07:58:40.629Z,17.35
2022-09-15T08:01:11.632Z,15.73
2022-09-15T08:03:42.895Z,17.35
2022-09-15T08:06:10.236Z,17.23
2022-09-15T08:08:41.043Z,14.88
2022-09-15T08:11:18.403Z,21.27
2022-09-15T08:13:49.779Z,20.10
2022-09-15T08:16:21.950Z,23.80
2022-09-15T08:18:49.554Z,21.25
2022-09-15T08:21:20.202Z,13.55
2022-09-15T08:23:55.745Z,19.45
2022-09-15T08:26:23.018Z,21.17
2022-09-15T08:28:49.606Z,16.27
2022-09-15T08:31:16.314Z,24.98
2022-09-15T08:33:47.063Z,16.55
2022-09-15T08:36:13.824Z,19.30
2022-09-15T08:38:41.523Z,12.18
2022-09-15T08:41:29.654Z,14.10
2022-09-15T08:44:12.180Z,11.52
2022-09-15T08:46:54.896Z,19.95
2022-09-15T08:49:50.138Z,12.67
2022-09-15T08:52:39.647Z,11.80
2022-09-15T08:55:19.209Z,10.18
2022-09-15T08:57:45.858Z,14.55
2022-09-15T09:00:16.977Z,6.55
2022-09-15T09:02:56.100Z,12.75
2022-09-15T09:05:47.625Z,12.65
2022-09-15T09:08:21.741Z,13.13
2022-09-15T09:11:08.558Z,15.43
2022-09-15T09:13:49.386Z,12.60
2022-09-15T09:16:54.362Z,10.63
2022-09-15T09:19:46.870Z,8.05
2022-09-15T09:22:17.835Z,14.43
2022-09-15T09:24:48.060Z,10.55
2022-09-15T09:27:21.618Z,15.13
2022-09-15T09:29:52.127Z,9.10
2022-09-15T09:32:24.562Z,9.38
2022-09-15T09:35:12.373Z,9.77
2022-09-15T09:37:38.918Z,11.80
2022-09-15T09:40:05.908Z,6.88
2022-09-15T09:42:37.129Z,7.53
2022-09-15T09:45:05.938Z,7.18
2022-09-15T09:47:35.105Z,8.27
2022-09-15T09:50:02.229Z,6.70
2022-09-15T09:52:37.187Z,14.23
2022-09-15T09:55:19.230Z,14.52
2022-09-15T09:57:45.826Z,8.80
2022-09-15T10:00:36.423Z,14.43
2022-09-15T10:03:17.381Z,5.47
2022-09-15T10:05:46.017Z,8.20
2022-09-15T10:08:17.949Z,10.68
2022-09-15T10:10:53.917Z,8.18
2022-09-15T10:13:21.633Z,8.25
2022-09-15T10:15:58.697Z,7.13
2022-09-15T10:18:37.873Z,9.85
2022-09-15T10:21:09.728Z,8.25
2022-09-15T10:23:36.873Z,7.82
2022-09-15T10:26:32.209Z,10.05
2022-09-15T10:29:16.537Z,10.30
2022-09-15T10:31:44.579Z,6.18
2022-09-15T10:34:31.690Z,5.03
2022-09-15T10:37:27.164Z,7.45
2022-09-15T10:40:00.061Z,4.70
2022-09-15T10:42:35.899Z,7.43
2022-09-15T10:45:18.837Z,5.53
2022-09-15T10:47:58.988Z,7.32
2022-09-15T10:50:55.234Z,8.45
2022-09-15T10:53:49.269Z,7.40
2022-09-15T10:56:40.871Z,7.60
2022-09-15T10:59:13.037Z,6.15
2022-09-15T11:01:54.155Z,9.13
2022-09-15T11:04:33.028Z,9.55
2022-09-15T11:07:16.302Z,9.10
2022-09-15T11:09:57.475Z,7.97
2022-09-15T11:12:36.134Z,11.68
2022-09-15T11:15:29.104Z,11.32
2022-09-15T11:18:17.166Z,8.85
2022-09-15T11:20:56.375Z,5.75
2022-09-15T11:23:33.824Z,8.32
2022-09-15T11:26:07.403Z,6.20
2022-09-15T11:28:44.047Z,9.63
2022-09-15T11:31:23.368Z,6.00
2022-09-15T11:33:53.008Z,6.40
2022-09-15T11:36:34.258Z,7.45
2022-09-15T11:39:19.541Z,13.65
2022-09-15T11:41:57.057Z,10.52
2022-09-15T11:44:32.961Z,8.65
2022-09-15T11:47:05.553Z,7.38
2022-09-15T11:49:47.660Z,7.20
2022-09-15T11:52:14.142Z,7.72
2022-09-15T11:54:51.189Z,5.00
2022-09-15T11:57:24.959Z,7.45
2022-09-15T11:59:58.202Z,8.40
2022-09-15T12:02:49.235Z,4.70
2022-09-15T12:05:19.516Z,6.80
2022-09-15T12:07:52.020Z,5.40
2022-09-15T12:10:23.593Z,13.73
2022-09-15T12:12:51.702Z,6.43
2022-09-15T12:15:27.055Z,6.63
2022-09-15T12:18:34.318Z,4.53
2022-09-15T12:21:35.340Z,5.85
2022-09-15T12:24:08.087Z,4.72
2022-09-15T12:26:35.047Z,7.82
2022-09-15T12:29:04.518Z,6.90
2022-09-15T12:31:32.345Z,5.28
2022-09-15T12:34:06.750Z,7.38
2022-09-15T12:36:44.070Z,7.25
2022-09-15T12:39:31.478Z,8.75
2022-09-15T12:42:05.872Z,8.05
2022-09-15T12:44:35.525Z,6.25
2022-09-15T12:47:05.516Z,10.80
2022-09-15T12:49:42.103Z,8.82
2022-09-15T12:52:09.970Z,4.47
2022-09-15T12:54:39.846Z,5.07
2022-09-15T12:57:08.076Z,6.25
2022-09-15T12:59:34.765Z,4.95
2022-09-15T13:02:02.596Z,6.07
2022-09-15T13:04:55.733Z,4.65
2022-09-15T13:07:32.902Z,8.93
2022-09-15T13:10:26.202Z,4.22
2022-09-15T13:13:04.251Z,10.18
2022-09-15T13:15:31.113Z,7.85
2022-09-15T13:17:58.440Z,6.85
2022-09-15T13:20:32.148Z,4.82
2022-09-15T13:23:00.088Z,10.40
2022-09-15T13:25:30.268Z,5.80
2022-09-15T13:28:00.786Z,11.13
2022-09-15T13:30:45.917Z,5.93
2022-09-15T13:40:27.090Z,5.45
2022-09-15T13:45:50.241Z,4.43
2022-09-15T13:48:43.805Z,4.22
2022-09-15T13:51:19.575Z,4.57
2022-09-15T13:54:06.937Z,8.35
2022-09-15T13:56:38.497Z,5.93
2022-09-15T13:59:14.032Z,5.82
2022-09-15T14:01:42.188Z,11.30
2022-09-15T14:04:14.883Z,8.93
2022-09-15T14:06:44.384Z,5.53
2022-09-15T14:09:18.983Z,8.63
2022-09-15T14:11:48.925Z,4.15
2022-09-15T14:14:27.825Z,4.97
2022-09-15T14:16:56.269Z,3.22
2022-09-15T14:19:42.266Z,8.88
2022-09-15T14:22:17.901Z,5.13
2022-09-15T14:24:45.072Z,6.03
2022-09-15T14:27:13.198Z,7.97
2022-09-15T14:29:41.462Z,5.85
2022-09-15T14:32:13.736Z,3.67
2022-09-15T14:34:42.052Z,2.65
2022-09-15T14:37:19.573Z,3.13
2022-09-15T14:39:57.286Z,3.92
2022-09-15T14:42:30.663Z,5.72
2022-09-15T14:48:08.348Z,5.80
2022-09-15T14:50:35.637Z,6.88
2022-09-15T14:53:05.457Z,3.22
2022-09-15T14:55:40.041Z,8.20
2022-09-15T14:58:19.502Z,8.07
2022-09-15T15:00:59.896Z,6.28
2022-09-15T15:03:40.791Z,3.85
2022-09-15T15:06:33.061Z,5.70
2022-09-15T15:09:03.212Z,8.02
2022-09-15T15:11:32.929Z,5.75
2022-09-15T15:14:00.106Z,7.93
2022-09-15T15:16:31.020Z,12.13
2022-09-15T15:18:58.298Z,11.48
2022-09-15T15:21:43.227Z,6.30
2022-09-15T15:24:12.620Z,5.13
2022-09-15T15:26:44.743Z,4.43
2022-09-15T15:29:40.881Z,2.58
2022-09-15T15:32:22.020Z,7.95
2022-09-15T15:35:00.489Z,7.32
2022-09-15T15:37:34.830Z,8.23
2022-09-15T15:40:05.769Z,6.80
2022-09-15T15:42:32.539Z,5.68
2022-09-15T15:45:04.459Z,10.13
2022-09-15T15:47:35.249Z,5.75
2022-09-15T15:50:14.654Z,4.82
2022-09-15T15:52:42.196Z,3.58
2022-09-15T15:55:12.414Z,4.18
2022-09-15T15:57:39.116Z,5.80
2022-09-15T16:00:30.569Z,4.05
2022-09-15T16:02:57.284Z,5.30
2022-09-15T16:05:27.465Z,4.47
2022-09-15T16:07:56.215Z,7.55
2022-09-15T16:10:27.062Z,9.20
2022-09-15T16:12:53.579Z,3.88
2022-09-15T16:15:21.464Z,3.45
2022-09-15T16:17:48.993Z,4.88
2022-09-15T16:20:16.827Z,7.68
2022-09-15T16:22:43.735Z,4.18
2022-09-15T16:25:18.298Z,3.28
2022-09-15T16:27:44.890Z,2.60
2022-09-15T16:30:12.153Z,2.88
2022-09-15T16:32:40.162Z,3.90
2022-09-15T16:35:21.215Z,3.05
2022-09-15T16:37:47.751Z,3.47
2022-09-15T16:40:14.411Z,4.10
2022-09-15T16:42:40.951Z,4.78
2022-09-15T16:45:21.497Z,2.85
2022-09-15T16:47:48.003Z,5.45
2022-09-15T16:50:14.537Z,1.77
2022-09-15T16:52:41.322Z,2.63
2022-09-15T16:55:24.768Z,4.53
2022-09-15T16:57:51.735Z,7.80
2022-09-15T17:00:18.879Z,6.60
2022-09-15T17:02:45.413Z,3.78
2022-09-15T17:05:19.599Z,3.95
2022-09-15T17:07:46.247Z,6.93
2022-09-15T17:10:12.776Z,5.20
2022-09-15T17:12:39.372Z,4.63
2022-09-15T17:15:30.771Z,7.13
2022-09-15T17:17:58.543Z,2.10
2022-09-15T17:20:25.732Z,6.82
2022-09-15T17:22:53.792Z,5.13
2022-09-15T17:25:29.391Z,5.20
2022-09-15T17:27:57.843Z,2.72
2022-09-15T17:30:30.214Z,4.93
2022-09-15T17:33:10.540Z,10.40
2022-09-15T17:35:37.481Z,5.50
2022-09-15T17:38:06.623Z,6.00
2022-09-15T17:40:34.655Z,4.18
2022-09-15T17:43:02.322Z,8.50
2022-09-15T17:45:33.131Z,4.03
2022-09-15T17:48:00.103Z,4.57
2022-09-15T17:50:28.643Z,5.93
2022-09-15T17:52:56.185Z,4.97
2022-09-15T17:55:33.604Z,5.57
2022-09-15T17:58:02.014Z,5.82
2022-09-15T18:00:32.111Z,5.90
2022-09-15T18:03:01.798Z,4.90
2022-09-15T18:05:34.087Z,6.93
2022-09-15T18:08:03.438Z,13.43
2022-09-15T18:10:32.950Z,5.80
2022-09-15T18:13:00.452Z,8.07
2022-09-15T18:15:32.481Z,5.70
2022-09-15T18:18:04.014Z,4.82
2022-09-15T18:20:32.875Z,9.07
2022-09-15T18:23:00.329Z,7.32
2022-09-15T18:25:35.031Z,10.27
2022-09-15T18:28:02.858Z,6.32
2022-09-15T18:30:32.768Z,7.68
2022-09-15T18:32:59.930Z,6.15
2022-09-15T18:35:26.992Z,9.32
2022-09-15T18:37:59.569Z,5.40
2022-09-15T18:40:27.867Z,8.60
2022-09-15T18:42:56.632Z,7.32
2022-09-15T18:45:23.290Z,7.78
2022-09-15T18:47:51.569Z,6.53
2022-09-15T18:50:21.094Z,7.85
2022-09-15T18:52:48.341Z,6.32
2022-09-15T18:55:18.380Z,9.18
2022-09-15T18:57:45.262Z,4.88
2022-09-15T19:00:15.370Z,7.55
2022-09-15T19:02:42.227Z,7.18
2022-09-15T19:05:11.617Z,6.00
2022-09-15T19:07:39.073Z,8.60
2022-09-15T19:10:07.913Z,6.70
2022-09-15T19:12:38.713Z,7.30
2022-09-15T19:15:10.654Z,9.73
2022-09-15T19:17:38.727Z,7.40
2022-09-15T19:20:07.109Z,7.25
2022-09-15T19:22:34.380Z,5.90
2022-09-15T19:25:01.544Z,9.73
2022-09-15T19:27:28.685Z,10.35
2022-09-15T19:29:58.599Z,6.75
2022-09-15T19:32:25.537Z,8.07
2022-09-15T19:34:52.421Z,6.75
2022-09-15T19:37:20.844Z,8.70
2022-09-15T19:39:48.209Z,7.55
2022-09-15T19:44:42.308Z,10.50
2022-09-15T19:47:09.674Z,4.93
2022-09-15T19:49:36.779Z,9.00
2022-09-15T19:52:05.466Z,7.88
2022-09-15T19:54:32.281Z,6.57
2022-09-15T19:56:58.999Z,8.48
2022-09-15T19:59:30.797Z,6.32
2022-09-15T20:01:58.117Z,10.80
2022-09-15T20:04:24.752Z,5.15
2022-09-15T20:06:51.606Z,10.75
2022-09-15T20:09:18.178Z,6.55
2022-09-15T20:11:44.699Z,9.52
2022-09-15T20:14:11.382Z,7.75
2022-09-15T20:16:37.942Z,7.18
2022-09-15T20:19:05.015Z,5.15
2022-09-15T20:21:50.749Z,7.93
2022-09-15T20:24:18.540Z,5.75
2022-09-15T20:26:45.071Z,10.88
2022-09-15T20:29:11.816Z,10.73
2022-09-15T20:31:38.837Z,11.15
2022-09-15T20:34:05.371Z,9.52
2022-09-15T20:36:34.413Z,6.88
2022-09-15T20:39:03.211Z,6.65
2022-09-15T20:41:31.875Z,5.28
2022-09-15T20:43:58.572Z,8.55
2022-09-15T20:46:25.316Z,5.60
2022-09-15T20:48:52.443Z,6.75
2022-09-15T20:51:25.603Z,3.90
2022-09-15T20:53:54.435Z,9.60
2022-09-15T20:56:24.954Z,6.18
2022-09-15T20:58:58.700Z,6.05
2022-09-15T21:01:28.115Z,13.00
2022-09-15T21:03:55.465Z,5.10
2022-09-15T21:06:24.730Z,7.90
2022-09-15T21:08:53.087Z,7.70
2022-09-15T21:11:20.982Z,5.97
2022-09-15T21:13:49.397Z,9.80
2022-09-15T21:16:21.357Z,10.63
2022-09-15T21:18:49.099Z,10.20
2022-09-15T21:21:21.810Z,13.15
2022-09-15T21:23:52.440Z,7.80
2022-09-15T21:26:22.490Z,8.35
2022-09-15T21:28:49.532Z,9.32
2022-09-15T21:31:18.923Z,8.15
2022-09-15T21:33:47.073Z,11.30
2022-09-15T21:36:40.053Z,8.63
2022-09-15T21:39:06.646Z,9.85
2022-09-15T21:41:33.124Z,7.22
2022-09-15T21:44:00.883Z,7.57
2022-09-15T21:46:30.231Z,7.30
2022-09-15T21:48:58.579Z,8.32
2022-09-15T21:51:27.343Z,6.43
2022-09-15T21:53:55.666Z,8.63
2022-09-15T21:56:23.168Z,5.55
2022-09-15T21:58:49.964Z,8.00
2022-09-15T22:01:19.604Z,8.10
2022-09-15T22:03:54.976Z,11.55
2022-09-15T22:06:33.212Z,7.13
2022-09-15T22:09:04.746Z,5.30
2022-09-15T22:11:31.930Z,6.28
2022-09-15T22:13:58.704Z,7.03
2022-09-15T22:16:25.999Z,13.35
2022-09-15T22:18:53.140Z,7.55
2022-09-15T22:21:27.831Z,11.43
2022-09-15T22:23:56.788Z,10.88
2022-09-15T22:26:29.749Z,10.00
2022-09-15T22:28:58.313Z,8.35
2022-09-15T22:31:25.729Z,9.45
2022-09-15T22:33:53.273Z,9.63
2022-09-15T22:36:26.602Z,9.07
2022-09-15T22:38:56.346Z,7.90
2022-09-15T22:41:25.835Z,9.48
2022-09-15T22:43:52.459Z,14.27
2022-09-15T22:46:19.749Z,13.23
2022-09-15T22:48:46.484Z,10.00
2022-09-15T22:51:14.781Z,13.07
2022-09-15T22:53:41.495Z,5.78
2022-09-15T22:56:20.744Z,10.05
2022-09-15T22:58:49.044Z,6.85
2022-09-15T23:01:24.042Z,9.43
2022-09-15T23:03:52.567Z,11.55
2022-09-15T23:06:20.063Z,9.70
2022-09-15T23:08:51.674Z,9.13
2022-09-15T23:11:18.490Z,11.68
2022-09-15T23:13:45.015Z,11.93
2022-09-15T23:16:11.597Z,10.00
2022-09-15T23:18:38.200Z,8.98
2022-09-15T23:21:07.424Z,7.43
2022-09-15T23:23:36.085Z,12.27
2022-09-15T23:26:04.400Z,6.03
2022-09-15T23:28:31.778Z,7.95
2022-09-15T23:30:59.331Z,8.95
2022-09-15T23:33:27.935Z,9.38
2022-09-15T23:35:55.349Z,4.68
2022-09-15T23:38:22.339Z,9.30
2022-09-15T23:40:50.361Z,4.38
2022-09-15T23:43:17.600Z,5.32
2022-09-15T23:45:45.428Z,7.13
2022-09-15T23:48:13.359Z,8.23
2022-09-15T23:50:40.640Z,14.05
2022-09-15T23:53:07.982Z,6.57
2022-09-15T23:55:34.930Z,12.20
2022-09-15T23:58:01.749Z,6.18
